createdAt,value
2022-08-19T00:04:02.477Z,17.6
2022-08-19T00:09:25.487Z,17.5
2022-08-19T00:15:08.097Z,17.4
2022-08-19T00:20:54.353Z,17.4
2022-08-19T00:26:26.308Z,17.2
2022-08-19T00:32:19.308Z,17.2
2022-08-19T00:37:57.351Z,17.1
2022-08-19T00:43:44.165Z,17.1
2022-08-19T00:54:17.392Z,16.9
2022-08-19T01:00:36.324Z,16.8
2022-08-19T01:06:17.714Z,16.8
2022-08-19T01:12:09.180Z,16.6
2022-08-19T01:18:04.167Z,16.6
2022-08-19T01:23:56.784Z,16.4
2022-08-19T01:30:13.344Z,16.3
2022-08-19T01:36:15.585Z,16.2
2022-08-19T01:42:06.310Z,16.1
2022-08-19T01:48:19.615Z,16
2022-08-19T01:54:07.581Z,16
2022-08-19T01:59:31.863Z,15.9
2022-08-19T02:05:13.851Z,15.9
2022-08-19T02:11:07.945Z,15.8
2022-08-19T02:16:51.662Z,15.8
2022-08-19T02:22:32.885Z,15.7
2022-08-19T02:28:19.060Z,15.6
2022-08-19T02:33:57.289Z,15.5
2022-08-19T02:39:58.954Z,15.4
2022-08-19T02:46:15.538Z,15.4
2022-08-19T02:52:05.441Z,15.4
2022-08-19T02:57:46.891Z,15.4
2022-08-19T03:03:17.576Z,15.4
2022-08-19T03:09:30.063Z,15.3
2022-08-19T03:15:05.884Z,15.3
2022-08-19T03:20:32.749Z,15.3
2022-08-19T03:26:33.158Z,15.3
2022-08-19T03:33:18.056Z,15.4
2022-08-19T03:38:48.646Z,15.4
2022-08-19T03:45:29.614Z,15.3
2022-08-19T03:51:12.527Z,15.2
2022-08-19T03:56:52.414Z,15.3
2022-08-19T04:03:00.445Z,15.4
2022-08-19T04:08:45.935Z,15.4
2022-08-19T04:14:38.361Z,15.6
2022-08-19T04:20:06.806Z,15.9
2022-08-19T04:25:32.059Z,16.1
2022-08-19T04:31:14.298Z,16.4
2022-08-19T04:37:35.873Z,16.6
2022-08-19T04:43:13.680Z,16.9
2022-08-19T04:50:25.896Z,17.3
2022-08-19T04:56:10.587Z,17.6
2022-08-19T05:01:50.386Z,18
2022-08-19T05:07:18.710Z,18.4
2022-08-19T05:13:28.424Z,18.9
2022-08-19T05:19:27.576Z,19.3
2022-08-19T05:25:36.212Z,19.9
2022-08-19T05:31:20.519Z,20.5
2022-08-19T05:37:11.389Z,21.2
2022-08-19T05:42:54.959Z,21.9
2022-08-19T05:48:37.843Z,22.9
2022-08-19T05:54:21.757Z,23.9
2022-08-19T05:59:59.229Z,25.1
2022-08-19T06:05:49.820Z,26.4
2022-08-19T06:11:55.963Z,28.1
2022-08-19T06:17:52.810Z,29.7
2022-08-19T06:23:57.910Z,31.4
2022-08-19T06:29:58.889Z,33.2
2022-08-19T06:35:37.736Z,34.7
2022-08-19T06:41:15.030Z,36.1
2022-08-19T06:47:32.369Z,37.9
2022-08-19T06:53:35.519Z,39.3
2022-08-19T06:59:44.735Z,40.8
2022-08-19T07:05:40.578Z,42.2
2022-08-19T07:12:26.533Z,43.6
2022-08-19T07:18:31.352Z,44.4
2022-08-19T07:24:39.469Z,45.3
2022-08-19T07:31:13.073Z,46.9
2022-08-19T07:37:05.377Z,47.4
2022-08-19T07:42:47.309Z,48.2
2022-08-19T07:49:02.623Z,50
2022-08-19T07:54:51.466Z,51.5
2022-08-19T08:01:00.298Z,52.9
2022-08-19T08:06:51.721Z,54.1
2022-08-19T08:13:44.533Z,56.1
2022-08-19T08:20:38.118Z,52.6
2022-08-19T08:26:19.328Z,54.7
2022-08-19T08:32:33.430Z,55.4
2022-08-19T08:38:25.216Z,56.7
2022-08-19T08:44:34.746Z,57.7
2022-08-19T08:56:35.883Z,54.5
2022-08-19T09:02:26.117Z,56.4
2022-08-19T09:08:56.635Z,58.1
2022-08-19T09:15:54.280Z,52.9
2022-08-19T09:21:59.879Z,55.5
2022-08-19T09:28:44.766Z,58.5
2022-08-19T09:35:01.751Z,53.5
2022-08-19T09:41:09.852Z,55.6
2022-08-19T09:47:30.545Z,58.3
2022-08-19T09:53:14.501Z,54.3
2022-08-19T09:59:09.099Z,56.3
2022-08-19T10:05:23.078Z,57.6
2022-08-19T10:12:35.302Z,54.8
2022-08-19T10:18:51.315Z,54.6
2022-08-19T10:25:06.133Z,54.9
2022-08-19T10:31:05.508Z,55
2022-08-19T10:38:34.150Z,55.5
2022-08-19T10:44:21.843Z,55.6
2022-08-19T10:50:14.501Z,55.8
2022-08-19T10:56:41.443Z,55.8
2022-08-19T11:02:49.013Z,56.1
2022-08-19T11:08:57.810Z,56.1
2022-08-19T11:14:37.787Z,56.1
2022-08-19T11:20:20.016Z,56.2
2022-08-19T11:26:07.095Z,55.5
2022-08-19T11:31:46.589Z,55.3
2022-08-19T11:37:29.657Z,55.4
2022-08-19T11:43:07.439Z,55.1
2022-08-19T11:48:53.671Z,55.4
2022-08-19T11:54:38.874Z,55.4
2022-08-19T12:00:25.809Z,55.1
2022-08-19T12:06:08.669Z,55.1
2022-08-19T12:11:54.855Z,55.4
2022-08-19T12:17:32.450Z,55.5
2022-08-19T12:23:11.733Z,55.6
2022-08-19T12:29:09.879Z,55.6
2022-08-19T12:34:47.439Z,55.1
2022-08-19T12:40:32.581Z,54.4
2022-08-19T12:46:22.251Z,54.1
2022-08-19T12:53:18.915Z,54.6
2022-08-19T12:59:08.087Z,54.5
2022-08-19T13:04:35.617Z,54.4
2022-08-19T13:10:17.673Z,53.9
2022-08-19T13:16:06.718Z,53.6
2022-08-19T13:21:48.673Z,53.9
2022-08-19T13:27:40.922Z,54.6
2022-08-19T13:33:33.401Z,54.5
2022-08-19T13:39:15.841Z,54.7
2022-08-19T13:45:07.253Z,54.4
2022-08-19T13:50:50.497Z,51.8
2022-08-19T13:56:41.684Z,51.6
2022-08-19T14:02:20.138Z,51.4
2022-08-19T14:07:57.639Z,51.3
2022-08-19T14:13:41.579Z,50.8
2022-08-19T14:19:23.906Z,49.9
2022-08-19T14:25:13.699Z,49.3
2022-08-19T14:30:52.277Z,48.6
2022-08-19T14:36:39.468Z,48.2
2022-08-19T14:42:30.222Z,48
2022-08-19T14:48:12.462Z,47.8
2022-08-19T14:53:54.328Z,47.5
2022-08-19T14:59:58.159Z,46.9
2022-08-19T15:05:55.917Z,45.9
2022-08-19T15:11:39.605Z,45.1
2022-08-19T15:17:35.357Z,44
2022-08-19T15:23:11.840Z,43
2022-08-19T15:28:50.942Z,42.3
2022-08-19T15:34:40.080Z,41.5
2022-08-19T15:40:21.114Z,40.8
2022-08-19T15:45:57.573Z,40.1
2022-08-19T15:51:47.198Z,39.1
2022-08-19T15:57:57.303Z,38.4
2022-08-19T16:04:31.201Z,37.9
2022-08-19T16:10:44.606Z,37.4
2022-08-19T16:16:31.005Z,37
2022-08-19T16:22:15.427Z,36.5
2022-08-19T16:28:06.825Z,36.1
2022-08-19T16:33:59.897Z,35.5
2022-08-19T16:39:44.421Z,34.9
2022-08-19T16:45:24.645Z,34.4
2022-08-19T16:51:43.695Z,33.9
2022-08-19T16:57:29.424Z,33.4
2022-08-19T17:03:15.296Z,32.9
2022-08-19T17:09:09.685Z,32.5
2022-08-19T17:15:23.907Z,32
2022-08-19T17:21:04.148Z,31.6
2022-08-19T17:26:53.425Z,31.1
2022-08-19T17:32:24.794Z,30.8
2022-08-19T17:38:05.853Z,30.4
2022-08-19T17:44:06.044Z,30.1
2022-08-19T17:49:49.854Z,29.8
2022-08-19T17:55:32.164Z,29.4
2022-08-19T18:01:39.613Z,29.2
2022-08-19T18:07:26.995Z,28.9
2022-08-19T18:13:17.520Z,28.8
2022-08-19T18:18:55.141Z,28.4
2022-08-19T18:25:14.115Z,28.2
2022-08-19T18:30:51.790Z,28
2022-08-19T18:42:04.688Z,27.7
2022-08-19T18:47:52.993Z,27.6
2022-08-19T18:53:48.688Z,27.4
2022-08-19T18:59:28.110Z,27.2
2022-08-19T19:05:07.304Z,26.9
2022-08-19T19:10:45.377Z,26.6
2022-08-19T19:16:47.067Z,26.3
2022-08-19T19:22:21.139Z,26
2022-08-19T19:28:31.167Z,25.8
2022-08-19T19:34:15.457Z,25.6
2022-08-19T19:40:20.108Z,25.3
2022-08-19T19:46:15.676Z,25.1
2022-08-19T19:52:31.463Z,24.8
2022-08-19T19:58:12.935Z,24.5
2022-08-19T20:04:03.836Z,24.2
2022-08-19T20:09:39.204Z,24
2022-08-19T20:15:27.391Z,23.8
2022-08-19T20:20:32.841Z,23.6
2022-08-19T20:26:51.548Z,23.5
2022-08-19T20:33:27.731Z,23.3
2022-08-19T20:39:10.604Z,23.3
2022-08-19T20:44:52.066Z,23.2
2022-08-19T20:50:55.985Z,23.1
2022-08-19T20:56:38.829Z,23.1
2022-08-19T21:02:22.736Z,23
2022-08-19T21:08:23.209Z,22.8
2022-08-19T21:14:15.106Z,22.6
2022-08-19T21:19:57.722Z,22.6
2022-08-19T21:25:43.606Z,22.5
2022-08-19T21:31:27.257Z,22.3
2022-08-19T21:37:17.510Z,22.1
2022-08-19T21:43:11.959Z,21.9
2022-08-19T21:48:22.548Z,21.8
2022-08-19T21:54:06.144Z,21.6
2022-08-19T21:59:45.581Z,21.3
2022-08-19T22:11:10.024Z,20.9
2022-08-19T22:16:50.724Z,20.9
2022-08-19T22:22:51.497Z,20.9
2022-08-19T22:28:29.556Z,20.9
2022-08-19T22:34:46.769Z,21
2022-08-19T22:45:31.487Z,21.3
2022-08-19T22:51:25.853Z,21.5
2022-08-19T22:56:49.923Z,21.6
2022-08-19T23:02:51.997Z,21.6
2022-08-19T23:08:36.012Z,21.7
2022-08-19T23:14:26.403Z,21.8
2022-08-19T23:20:12.105Z,21.8
2022-08-19T23:25:34.567Z,21.9
2022-08-19T23:31:20.592Z,21.9
2022-08-19T23:37:18.867Z,21.9
2022-08-19T23:42:55.997Z,22
2022-08-19T23:49:14.797Z,22.1
2022-08-19T23:55:00.209Z,22.1
